createdAt,value
2018-08-18T00:00:54.859Z,2.33
2018-08-18T00:03:23.003Z,2.40
2018-08-18T00:05:51.110Z,2.47
2018-08-18T00:08:19.163Z,2.80
2018-08-18T00:10:47.342Z,2.63
2018-08-18T00:13:15.515Z,2.63
2018-08-18T00:15:43.611Z,2.60
2018-08-18T00:18:11.778Z,2.80
2018-08-18T00:20:39.894Z,2.50
2018-08-18T00:23:08.051Z,2.60
2018-08-18T00:25:36.150Z,2.47
2018-08-18T00:28:23.597Z,2.90
2018-08-18T00:30:51.925Z,2.40
2018-08-18T00:33:20.131Z,2.53
2018-08-18T00:35:48.360Z,2.70
2018-08-18T00:38:16.464Z,2.60
2018-08-18T00:40:44.599Z,3.00
2018-08-18T00:43:12.718Z,3.13
2018-08-18T00:45:40.863Z,2.90
2018-08-18T00:48:08.988Z,2.73
2018-08-18T00:50:39.174Z,3.07
2018-08-18T00:53:08.683Z,3.20
2018-08-18T00:55:37.116Z,3.13
2018-08-18T00:58:05.615Z,2.70
2018-08-18T01:00:33.999Z,2.47
2018-08-18T01:03:02.177Z,2.83
2018-08-18T01:05:30.302Z,2.60
2018-08-18T01:07:58.512Z,3.00
2018-08-18T01:10:26.672Z,2.57
2018-08-18T01:12:54.847Z,2.50
2018-08-18T01:15:28.178Z,2.90
2018-08-18T01:17:56.563Z,3.00
2018-08-18T01:20:24.662Z,3.00
2018-08-18T01:22:59.558Z,2.70
2018-08-18T01:25:27.667Z,2.80
2018-08-18T01:27:55.776Z,3.17
2018-08-18T01:30:23.937Z,2.80
2018-08-18T01:32:52.045Z,2.97
2018-08-18T01:35:20.210Z,2.90
2018-08-18T01:37:48.301Z,3.03
2018-08-18T01:40:16.413Z,3.10
2018-08-18T01:42:44.505Z,3.07
2018-08-18T01:45:12.704Z,2.83
2018-08-18T01:47:41.441Z,2.63
2018-08-18T01:50:15.073Z,2.80
2018-08-18T01:52:43.889Z,2.77
2018-08-18T01:55:12.429Z,2.97
2018-08-18T01:57:40.565Z,2.53
2018-08-18T02:00:22.064Z,2.90
2018-08-18T02:02:50.161Z,3.07
2018-08-18T02:05:18.720Z,3.27
2018-08-18T02:07:46.900Z,2.40
2018-08-18T02:10:15.031Z,2.90
2018-08-18T02:12:48.655Z,2.80
2018-08-18T02:15:16.744Z,2.80
2018-08-18T02:17:44.835Z,2.70
2018-08-18T02:20:12.948Z,2.43
2018-08-18T02:22:41.238Z,2.80
2018-08-18T02:25:09.393Z,2.80
2018-08-18T02:27:37.520Z,2.90
2018-08-18T02:30:14.940Z,2.80
2018-08-18T02:32:43.073Z,2.70
2018-08-18T02:35:11.254Z,2.70
2018-08-18T02:37:39.415Z,2.83
2018-08-18T02:40:08.663Z,2.60
2018-08-18T02:42:36.739Z,2.70
2018-08-18T02:45:05.344Z,2.50
2018-08-18T02:47:33.483Z,2.77
2018-08-18T02:50:01.612Z,2.53
2018-08-18T02:52:31.563Z,2.83
2018-08-18T02:55:03.677Z,3.17
2018-08-18T02:57:35.925Z,2.80
2018-08-18T03:00:06.495Z,3.27
2018-08-18T03:02:34.607Z,3.50
2018-08-18T03:05:02.819Z,2.73
2018-08-18T03:07:31.805Z,2.90
2018-08-18T03:10:00.014Z,2.90
2018-08-18T03:12:33.606Z,2.97
2018-08-18T03:15:01.722Z,3.30
2018-08-18T03:17:29.827Z,2.80
2018-08-18T03:19:57.980Z,3.63
2018-08-18T03:22:30.483Z,3.03
2018-08-18T03:24:58.593Z,3.13
2018-08-18T03:27:26.702Z,3.07
2018-08-18T03:29:54.823Z,3.47
2018-08-18T03:32:22.929Z,3.20
2018-08-18T03:34:51.097Z,3.23
2018-08-18T03:37:27.554Z,3.37
2018-08-18T03:39:56.126Z,3.20
2018-08-18T03:42:29.992Z,3.10
2018-08-18T03:44:58.216Z,3.20
2018-08-18T03:47:26.648Z,3.23
2018-08-18T03:49:54.807Z,3.37
2018-08-18T03:52:22.961Z,3.27
2018-08-18T03:54:51.131Z,2.90
2018-08-18T03:57:19.273Z,3.03
2018-08-18T03:59:47.431Z,3.00
2018-08-18T04:02:15.579Z,3.30
2018-08-18T04:04:43.715Z,3.87
2018-08-18T04:07:11.793Z,3.10
2018-08-18T04:09:39.918Z,3.43
2018-08-18T04:12:09.459Z,3.43
2018-08-18T04:14:40.764Z,3.87
2018-08-18T04:17:14.597Z,3.57
2018-08-18T04:19:42.785Z,3.13
2018-08-18T04:22:10.956Z,3.70
2018-08-18T04:24:46.085Z,3.80
2018-08-18T04:27:18.109Z,3.37
2018-08-18T04:29:46.196Z,3.70
2018-08-18T04:32:14.337Z,3.20
2018-08-18T04:34:42.722Z,3.43
2018-08-18T04:37:10.839Z,3.20
2018-08-18T04:39:38.907Z,3.27
2018-08-18T04:42:07.411Z,3.47
2018-08-18T04:44:35.520Z,3.00
2018-08-18T04:47:03.597Z,3.40
2018-08-18T04:49:31.723Z,3.33
2018-08-18T04:51:59.874Z,3.90
2018-08-18T04:54:27.959Z,3.20
2018-08-18T04:56:56.065Z,3.60
2018-08-18T04:59:24.269Z,3.30
2018-08-18T05:01:52.310Z,3.40
2018-08-18T05:04:20.411Z,3.40
2018-08-18T05:06:48.561Z,3.37
2018-08-18T05:09:16.668Z,3.50
2018-08-18T05:11:44.776Z,3.30
2018-08-18T05:14:12.873Z,3.23
2018-08-18T05:16:41.033Z,3.70
2018-08-18T05:19:09.159Z,3.33
2018-08-18T05:21:37.319Z,3.57
2018-08-18T05:24:15.270Z,3.20
2018-08-18T05:26:43.404Z,3.30
2018-08-18T05:29:11.503Z,3.63
2018-08-18T05:31:39.564Z,3.40
2018-08-18T05:34:07.706Z,3.70
2018-08-18T05:36:35.905Z,3.50
2018-08-18T05:39:04.877Z,3.53
2018-08-18T05:41:33.625Z,3.60
2018-08-18T05:44:01.770Z,3.20
2018-08-18T05:46:30.756Z,3.53
2018-08-18T05:49:09.191Z,3.53
2018-08-18T05:51:43.965Z,3.90
2018-08-18T05:54:14.644Z,4.10
2018-08-18T05:56:43.706Z,3.67
2018-08-18T05:59:11.800Z,3.87
2018-08-18T06:01:40.955Z,4.43
2018-08-18T06:04:20.675Z,3.97
2018-08-18T06:06:49.527Z,3.70
2018-08-18T06:09:19.003Z,4.50
2018-08-18T06:11:47.304Z,4.10
2018-08-18T06:14:15.893Z,4.30
2018-08-18T06:16:44.522Z,4.07
2018-08-18T06:19:12.719Z,3.87
2018-08-18T06:21:40.933Z,3.83
2018-08-18T06:24:09.061Z,3.83
2018-08-18T06:26:37.231Z,3.80
2018-08-18T06:29:05.457Z,3.70
2018-08-18T06:31:33.681Z,4.40
2018-08-18T06:34:01.885Z,4.10
2018-08-18T06:36:30.044Z,4.17
2018-08-18T06:38:58.251Z,4.30
2018-08-18T06:41:26.513Z,3.90
2018-08-18T06:43:55.620Z,4.27
2018-08-18T06:46:23.756Z,4.07
2018-08-18T06:48:51.901Z,3.90
2018-08-18T06:51:20.041Z,4.17
2018-08-18T06:53:48.827Z,4.17
2018-08-18T06:56:17.221Z,3.80
2018-08-18T06:58:45.523Z,4.30
2018-08-18T07:01:13.659Z,4.00
2018-08-18T07:03:45.595Z,4.17
2018-08-18T07:06:14.729Z,4.17
2018-08-18T07:08:48.407Z,4.77
2018-08-18T07:11:16.665Z,4.00
2018-08-18T07:13:45.545Z,4.43
2018-08-18T07:16:14.496Z,4.03
2018-08-18T07:18:42.742Z,4.30
2018-08-18T07:21:10.926Z,4.23
2018-08-18T07:23:39.077Z,4.10
2018-08-18T07:26:07.245Z,4.60
2018-08-18T07:28:35.453Z,4.17
2018-08-18T07:31:03.523Z,4.00
2018-08-18T07:33:31.752Z,4.13
2018-08-18T07:35:59.931Z,4.70
2018-08-18T07:38:28.143Z,4.40
2018-08-18T07:40:56.810Z,4.47
2018-08-18T07:43:28.737Z,4.03
2018-08-18T07:45:58.903Z,4.77
2018-08-18T07:48:27.052Z,4.20
2018-08-18T07:50:55.191Z,3.93
2018-08-18T07:53:23.428Z,4.20
2018-08-18T07:55:51.483Z,4.40
2018-08-18T07:58:21.168Z,3.90
2018-08-18T08:00:49.378Z,4.30
2018-08-18T08:03:18.067Z,4.10
2018-08-18T08:05:46.358Z,4.97
2018-08-18T08:08:14.677Z,4.23
2018-08-18T08:10:42.893Z,4.70
2018-08-18T08:13:11.722Z,4.33
2018-08-18T08:15:40.017Z,4.40
2018-08-18T08:18:08.684Z,4.00
2018-08-18T08:20:36.943Z,3.97
2018-08-18T08:23:05.121Z,4.53
2018-08-18T08:25:33.281Z,4.40
2018-08-18T08:28:01.457Z,4.60
2018-08-18T08:30:29.623Z,4.17
2018-08-18T08:32:57.771Z,4.60
2018-08-18T08:35:25.926Z,4.03
2018-08-18T08:37:54.325Z,4.30
2018-08-18T08:40:23.082Z,4.17
2018-08-18T08:42:51.680Z,4.50
2018-08-18T08:45:21.133Z,4.20
2018-08-18T08:47:49.632Z,4.17
2018-08-18T08:50:20.818Z,4.17
2018-08-18T08:52:53.294Z,4.07
2018-08-18T08:55:22.944Z,3.90
2018-08-18T08:57:51.048Z,3.73
2018-08-18T09:00:19.235Z,3.93
2018-08-18T09:02:47.411Z,3.97
2018-08-18T09:05:15.652Z,3.93
2018-08-18T09:07:43.866Z,3.53
2018-08-18T09:10:13.060Z,3.83
2018-08-18T09:12:41.349Z,3.70
2018-08-18T09:15:10.416Z,3.70
2018-08-18T09:17:38.590Z,3.60
2018-08-18T09:20:08.058Z,3.20
2018-08-18T09:22:40.683Z,3.50
2018-08-18T09:25:15.034Z,3.40
2018-08-18T09:27:47.438Z,3.43
2018-08-18T09:30:15.594Z,3.57
2018-08-18T09:32:43.754Z,3.10
2018-08-18T09:35:11.873Z,3.50
2018-08-18T09:37:40.124Z,3.80
2018-08-18T09:40:08.326Z,3.23
2018-08-18T09:42:36.450Z,3.33
2018-08-18T09:45:04.643Z,3.07
2018-08-18T09:47:32.882Z,3.13
2018-08-18T09:50:01.030Z,2.77
2018-08-18T09:52:29.243Z,3.47
2018-08-18T09:54:57.419Z,3.10
2018-08-18T09:57:25.544Z,3.30
2018-08-18T09:59:53.737Z,3.17
2018-08-18T10:02:21.881Z,2.90
2018-08-18T10:04:49.993Z,2.90
2018-08-18T10:07:18.159Z,3.10
2018-08-18T10:09:46.312Z,3.37
2018-08-18T10:12:14.527Z,3.60
2018-08-18T10:14:42.704Z,3.50
2018-08-18T10:17:10.889Z,3.60
2018-08-18T10:19:39.025Z,3.77
2018-08-18T10:22:07.211Z,3.70
2018-08-18T10:24:35.413Z,3.27
2018-08-18T10:27:04.953Z,3.77
2018-08-18T10:29:33.145Z,3.70
2018-08-18T10:32:01.300Z,3.90
2018-08-18T10:34:31.331Z,3.87
2018-08-18T10:37:05.659Z,3.77
2018-08-18T10:39:34.023Z,3.40
2018-08-18T10:42:04.841Z,3.27
2018-08-18T10:44:34.013Z,3.43
2018-08-18T10:47:11.066Z,3.73
2018-08-18T10:49:44.802Z,3.80
2018-08-18T10:52:18.497Z,3.53
2018-08-18T10:54:46.707Z,3.60
2018-08-18T10:57:20.480Z,3.50
2018-08-18T10:59:49.575Z,3.87
2018-08-18T11:02:23.225Z,3.33
2018-08-18T11:04:51.379Z,3.13
2018-08-18T11:07:19.499Z,3.10
2018-08-18T11:09:47.641Z,3.57
2018-08-18T11:12:15.863Z,3.37
2018-08-18T11:14:48.579Z,3.60
2018-08-18T11:17:16.785Z,3.70
2018-08-18T11:19:45.194Z,3.47
2018-08-18T11:22:17.800Z,3.50
2018-08-18T11:24:46.221Z,3.70
2018-08-18T11:27:14.753Z,3.90
2018-08-18T11:29:42.954Z,3.90
2018-08-18T11:32:11.065Z,3.73
2018-08-18T11:34:39.318Z,3.60
2018-08-18T11:37:14.115Z,4.10
2018-08-18T11:39:42.324Z,4.00
2018-08-18T11:42:10.463Z,4.00
2018-08-18T11:44:38.625Z,3.97
2018-08-18T11:47:06.820Z,4.27
2018-08-18T11:49:35.041Z,3.70
2018-08-18T11:52:03.186Z,4.00
2018-08-18T11:54:31.320Z,3.77
2018-08-18T11:56:59.485Z,3.67
2018-08-18T11:59:27.605Z,3.13
2018-08-18T12:01:56.480Z,3.67
2018-08-18T12:04:24.541Z,3.87
2018-08-18T12:06:57.360Z,4.00
2018-08-18T12:09:25.577Z,3.97
2018-08-18T12:11:53.946Z,3.90
2018-08-18T12:14:22.196Z,3.97
2018-08-18T12:16:50.600Z,4.00
2018-08-18T12:19:18.729Z,3.70
2018-08-18T12:21:47.293Z,3.93
2018-08-18T12:24:16.762Z,4.20
2018-08-18T12:26:50.332Z,4.20
2018-08-18T12:29:18.672Z,4.17
2018-08-18T12:31:46.871Z,4.17
2018-08-18T12:34:15.044Z,3.43
2018-08-18T12:36:43.321Z,4.13
2018-08-18T12:39:11.595Z,4.00
2018-08-18T12:41:39.861Z,3.77
2018-08-18T12:44:08.040Z,3.77
2018-08-18T12:46:41.393Z,4.30
2018-08-18T12:49:09.555Z,3.73
2018-08-18T12:51:37.781Z,4.10
2018-08-18T12:54:06.049Z,3.97
2018-08-18T12:56:34.245Z,4.10
2018-08-18T12:59:08.861Z,3.90
2018-08-18T13:01:41.133Z,4.00
2018-08-18T13:04:11.113Z,4.00
2018-08-18T13:06:47.955Z,3.73
2018-08-18T13:09:17.677Z,3.90
2018-08-18T13:11:47.097Z,4.33
2018-08-18T13:14:15.821Z,4.00
2018-08-18T13:16:43.964Z,4.33
2018-08-18T13:19:13.811Z,3.97
2018-08-18T13:21:42.051Z,4.10
2018-08-18T13:24:10.240Z,3.70
2018-08-18T13:26:38.348Z,4.73
2018-08-18T13:29:06.502Z,4.03
2018-08-18T13:31:38.643Z,4.00
2018-08-18T13:34:07.360Z,4.23
2018-08-18T13:36:37.043Z,3.80
2018-08-18T13:39:07.152Z,3.90
2018-08-18T13:41:35.360Z,4.03
2018-08-18T13:44:03.526Z,3.77
2018-08-18T13:46:37.281Z,4.20
2018-08-18T13:49:05.368Z,3.70
2018-08-18T13:51:33.526Z,4.27
2018-08-18T13:54:02.262Z,4.33
2018-08-18T13:56:30.490Z,4.10
2018-08-18T13:58:58.614Z,4.20
2018-08-18T14:01:38.839Z,4.63
2018-08-18T14:04:09.669Z,4.30
2018-08-18T14:06:43.152Z,4.00
2018-08-18T14:09:11.264Z,4.27
2018-08-18T14:11:40.288Z,4.37
2018-08-18T14:14:08.464Z,4.17
2018-08-18T14:16:36.696Z,3.90
2018-08-18T14:19:04.832Z,3.80
2018-08-18T14:21:32.962Z,3.80
2018-08-18T14:24:01.597Z,4.13
2018-08-18T14:26:29.722Z,3.97
2018-08-18T14:28:57.904Z,4.20
2018-08-18T14:31:26.106Z,4.40
2018-08-18T14:33:54.294Z,4.03
2018-08-18T14:36:22.432Z,3.80
2018-08-18T14:38:50.867Z,4.00
2018-08-18T14:41:27.203Z,4.13
2018-08-18T14:43:55.269Z,3.17
2018-08-18T14:46:23.428Z,3.60
2018-08-18T14:48:51.570Z,4.07
2018-08-18T14:51:19.663Z,4.90
2018-08-18T14:53:48.643Z,4.40
2018-08-18T14:56:16.759Z,4.00
2018-08-18T14:58:44.920Z,3.80
2018-08-18T15:01:13.901Z,4.20
2018-08-18T15:03:42.297Z,4.33
2018-08-18T15:06:11.257Z,3.43
2018-08-18T15:08:39.411Z,3.80
2018-08-18T15:11:07.572Z,3.80
2018-08-18T15:13:35.655Z,4.00
2018-08-18T15:16:03.859Z,4.07
2018-08-18T15:18:31.974Z,4.10
2018-08-18T15:21:00.164Z,3.60
2018-08-18T15:23:28.246Z,3.93
2018-08-18T15:25:56.584Z,3.80
2018-08-18T15:28:24.764Z,4.00
2018-08-18T15:30:54.177Z,3.87
2018-08-18T15:33:24.589Z,3.77
2018-08-18T15:35:52.713Z,3.67
2018-08-18T15:38:26.342Z,3.80
2018-08-18T15:40:54.455Z,3.50
2018-08-18T15:43:22.606Z,3.57
2018-08-18T15:45:58.998Z,3.57
2018-08-18T15:48:27.270Z,3.63
2018-08-18T15:50:55.374Z,3.77
2018-08-18T15:53:30.821Z,3.93
2018-08-18T15:55:58.972Z,3.57
2018-08-18T15:58:27.134Z,3.70
2018-08-18T16:00:55.320Z,3.30
2018-08-18T16:03:23.476Z,3.93
2018-08-18T16:05:51.720Z,3.50
2018-08-18T16:08:19.978Z,4.00
2018-08-18T16:10:48.189Z,3.83
2018-08-18T16:13:16.299Z,3.87
2018-08-18T16:15:44.427Z,3.93
2018-08-18T16:18:12.659Z,3.63
2018-08-18T16:20:40.829Z,4.30
2018-08-18T16:23:13.353Z,3.80
2018-08-18T16:25:41.534Z,3.47
2018-08-18T16:28:09.838Z,3.27
2018-08-18T16:30:38.602Z,3.97
2018-08-18T16:33:11.217Z,3.60
2018-08-18T16:35:40.647Z,3.43
2018-08-18T16:38:08.942Z,3.90
2018-08-18T16:40:37.762Z,3.67
2018-08-18T16:43:08.135Z,3.73
2018-08-18T16:45:36.280Z,3.73
2018-08-18T16:48:04.977Z,4.10
2018-08-18T16:50:33.939Z,4.10
2018-08-18T16:53:10.811Z,3.70
2018-08-18T16:55:40.407Z,3.80
2018-08-18T16:58:09.660Z,3.93
2018-08-18T17:01:08.815Z,3.57
2018-08-18T17:03:37.025Z,3.37
2018-08-18T17:06:05.604Z,3.80
2018-08-18T17:08:33.791Z,3.43
2018-08-18T17:11:01.986Z,3.40
2018-08-18T17:13:32.499Z,3.70
2018-08-18T17:16:00.717Z,3.60
2018-08-18T17:18:28.934Z,3.53
2018-08-18T17:21:00.496Z,3.67
2018-08-18T17:23:30.321Z,3.70
2018-08-18T17:25:58.579Z,3.93
2018-08-18T17:28:28.249Z,3.60
2018-08-18T17:30:56.467Z,3.27
2018-08-18T17:33:25.802Z,3.63
2018-08-18T17:35:53.949Z,3.60
2018-08-18T17:38:22.423Z,3.77
2018-08-18T17:40:50.593Z,3.67
2018-08-18T17:43:19.990Z,3.60
2018-08-18T17:45:59.020Z,3.73
2018-08-18T17:48:28.504Z,3.63
2018-08-18T17:50:56.923Z,3.77
2018-08-18T17:53:25.295Z,3.90
2018-08-18T17:56:02.762Z,3.83
2018-08-18T17:58:31.096Z,3.50
2018-08-18T18:00:59.286Z,3.90
2018-08-18T18:03:27.461Z,3.57
2018-08-18T18:05:56.397Z,4.00
2018-08-18T18:08:24.542Z,3.70
2018-08-18T18:10:52.689Z,3.60
2018-08-18T18:13:26.026Z,3.70
2018-08-18T18:15:54.232Z,3.80
2018-08-18T18:18:23.424Z,3.90
2018-08-18T18:20:54.650Z,3.97
2018-08-18T18:23:23.316Z,4.03
2018-08-18T18:25:51.496Z,4.00
2018-08-18T18:28:19.695Z,3.80
2018-08-18T18:30:50.353Z,4.00
2018-08-18T18:33:18.536Z,3.87
2018-08-18T18:35:48.933Z,4.07
2018-08-18T18:38:17.128Z,4.30
2018-08-18T18:40:45.713Z,4.20
2018-08-18T18:43:13.908Z,4.30
2018-08-18T18:45:42.139Z,4.07
2018-08-18T18:48:12.178Z,3.90
2018-08-18T18:50:40.297Z,3.90
2018-08-18T18:53:08.509Z,4.10
2018-08-18T18:55:42.014Z,4.37
2018-08-18T18:58:11.494Z,4.23
2018-08-18T19:00:44.110Z,4.17
2018-08-18T19:03:12.361Z,4.17
2018-08-18T19:05:40.522Z,4.10
2018-08-18T19:08:09.517Z,4.07
2018-08-18T19:10:37.687Z,4.10
2018-08-18T19:13:06.080Z,4.33
2018-08-18T19:15:34.208Z,4.23
2018-08-18T19:18:02.340Z,4.30
2018-08-18T19:20:30.963Z,3.77
2018-08-18T19:23:04.915Z,4.10
2018-08-18T19:25:34.068Z,3.93
2018-08-18T19:28:02.252Z,4.20
2018-08-18T19:30:30.984Z,3.70
2018-08-18T19:32:59.169Z,3.90
2018-08-18T19:35:31.628Z,3.90
2018-08-18T19:38:00.777Z,3.83
2018-08-18T19:40:29.103Z,3.70
2018-08-18T19:42:57.284Z,4.63
2018-08-18T19:45:25.538Z,4.40
2018-08-18T19:47:53.677Z,3.93
2018-08-18T19:50:21.868Z,4.17
2018-08-18T19:52:51.295Z,3.63
2018-08-18T19:55:19.454Z,3.83
2018-08-18T19:57:47.581Z,3.80
2018-08-18T20:00:21.331Z,4.33
2018-08-18T20:02:53.738Z,4.30
2018-08-18T20:05:22.684Z,4.27
2018-08-18T20:07:51.074Z,4.57
2018-08-18T20:10:19.388Z,4.40
2018-08-18T20:12:47.562Z,4.47
2018-08-18T20:15:16.278Z,4.27
2018-08-18T20:17:44.535Z,4.33
2018-08-18T20:20:13.780Z,4.40
2018-08-18T20:22:42.877Z,4.30
2018-08-18T20:25:11.016Z,4.63
2018-08-18T20:27:39.142Z,4.73
2018-08-18T20:30:07.338Z,5.00
2018-08-18T20:32:35.608Z,4.53
2018-08-18T20:35:03.808Z,4.80
2018-08-18T20:37:32.062Z,5.63
2018-08-18T20:40:00.214Z,5.33
2018-08-18T20:42:33.616Z,4.80
2018-08-18T20:45:01.796Z,4.90
2018-08-18T20:47:31.169Z,4.90
2018-08-18T20:49:59.313Z,5.13
2018-08-18T20:52:29.253Z,5.03
2018-08-18T20:54:58.392Z,4.70
2018-08-18T20:57:26.545Z,4.80
2018-08-18T20:59:54.637Z,5.07
2018-08-18T21:02:22.871Z,4.70
2018-08-18T21:05:05.610Z,4.87
2018-08-18T21:07:34.684Z,4.33
2018-08-18T21:10:08.408Z,4.60
2018-08-18T21:12:41.930Z,4.53
2018-08-18T21:15:10.516Z,4.83
2018-08-18T21:17:38.639Z,4.70
2018-08-18T21:20:07.984Z,4.50
2018-08-18T21:22:36.182Z,5.93
2018-08-18T21:25:04.938Z,5.27
2018-08-18T21:27:33.122Z,5.33
2018-08-18T21:30:01.234Z,5.33
2018-08-18T21:32:29.362Z,4.87
2018-08-18T21:34:57.510Z,4.77
2018-08-18T21:37:25.709Z,4.67
2018-08-18T21:39:53.867Z,4.87
2018-08-18T21:42:22.056Z,4.50
2018-08-18T21:44:52.677Z,4.30
2018-08-18T21:47:20.848Z,4.80
2018-08-18T21:49:49.019Z,4.57
2018-08-18T21:52:17.390Z,4.87
2018-08-18T21:54:45.864Z,4.70
2018-08-18T21:57:14.073Z,4.63
2018-08-18T21:59:50.337Z,5.57
2018-08-18T22:02:24.092Z,5.23
2018-08-18T22:04:52.261Z,5.00
2018-08-18T22:07:20.457Z,4.93
2018-08-18T22:09:48.620Z,5.13
2018-08-18T22:12:16.830Z,5.43
2018-08-18T22:14:45.005Z,4.83
2018-08-18T22:17:13.193Z,5.20
2018-08-18T22:19:41.390Z,4.93
2018-08-18T22:22:09.585Z,4.30
2018-08-18T22:24:37.756Z,4.47
2018-08-18T22:27:05.984Z,5.77
2018-08-18T22:29:34.114Z,5.67
2018-08-18T22:32:02.943Z,5.23
2018-08-18T22:34:31.073Z,6.90
2018-08-18T22:37:09.347Z,6.30
2018-08-18T22:39:37.481Z,6.60
2018-08-18T22:42:05.671Z,5.90
2018-08-18T22:44:33.787Z,6.10
2018-08-18T22:47:02.728Z,6.10
2018-08-18T22:49:30.882Z,5.53
2018-08-18T22:51:58.994Z,5.67
2018-08-18T22:54:27.123Z,5.87
2018-08-18T22:57:00.606Z,6.00
2018-08-18T22:59:29.318Z,5.53
2018-08-18T23:01:57.510Z,5.20
2018-08-18T23:04:28.855Z,5.43
2018-08-18T23:06:57.205Z,5.50
2018-08-18T23:09:25.479Z,5.03
2018-08-18T23:11:54.301Z,5.63
2018-08-18T23:14:22.453Z,5.07
2018-08-18T23:16:51.071Z,5.37
2018-08-18T23:19:19.206Z,4.63
2018-08-18T23:21:47.372Z,5.03
2018-08-18T23:24:25.202Z,5.27
2018-08-18T23:26:53.790Z,5.40
2018-08-18T23:29:22.481Z,4.70
2018-08-18T23:31:50.725Z,5.13
2018-08-18T23:34:18.963Z,5.10
2018-08-18T23:36:47.096Z,4.90
2018-08-18T23:39:15.262Z,5.87
2018-08-18T23:41:43.414Z,5.53
2018-08-18T23:44:11.508Z,5.73
2018-08-18T23:46:39.719Z,5.33
2018-08-18T23:49:07.823Z,6.23
2018-08-18T23:51:42.162Z,6.13
2018-08-18T23:54:16.361Z,6.20
2018-08-18T23:56:44.515Z,5.70
2018-08-18T23:59:12.639Z,5.93
